sensor_id;sensor_type;location;lat;lon;timestamp;P1;durP1;ratioP1;P2;durP2;ratioP2
18001;SDS011;9126;48.160;17.130;2022-10-23T00:01:39;8.67;;;7.87;;
18001;SDS011;9126;48.160;17.130;2022-10-23T00:04:10;9.63;;;8.73;;
18001;SDS011;9126;48.160;17.130;2022-10-23T00:06:41;9.30;;;8.30;;
18001;SDS011;9126;48.160;17.130;2022-10-23T00:09:11;10.50;;;9.47;;
18001;SDS011;9126;48.160;17.130;2022-10-23T00:11:40;12.80;;;9.00;;
18001;SDS011;9126;48.160;17.130;2022-10-23T00:14:08;11.13;;;10.03;;
18001;SDS011;9126;48.160;17.130;2022-10-23T00:16:36;11.17;;;10.20;;
18001;SDS011;9126;48.160;17.130;2022-10-23T00:19:03;10.73;;;9.80;;
18001;SDS011;9126;48.160;17.130;2022-10-23T00:21:30;11.80;;;10.70;;
18001;SDS011;9126;48.160;17.130;2022-10-23T00:23:57;11.53;;;9.60;;
18001;SDS011;9126;48.160;17.130;2022-10-23T00:26:26;12.03;;;10.93;;
18001;SDS011;9126;48.160;17.130;2022-10-23T00:28:53;11.17;;;9.57;;
18001;SDS011;9126;48.160;17.130;2022-10-23T00:31:21;12.13;;;11.13;;
18001;SDS011;9126;48.160;17.130;2022-10-23T00:33:49;13.07;;;11.77;;
18001;SDS011;9126;48.160;17.130;2022-10-23T00:36:18;10.67;;;9.43;;
18001;SDS011;9126;48.160;17.130;2022-10-23T00:38:46;13.47;;;12.07;;
18001;SDS011;9126;48.160;17.130;2022-10-23T00:41:20;12.97;;;11.67;;
18001;SDS011;9126;48.160;17.130;2022-10-23T00:43:58;12.93;;;11.63;;
18001;SDS011;9126;48.160;17.130;2022-10-23T00:46:28;13.50;;;12.30;;
18001;SDS011;9126;48.160;17.130;2022-10-23T00:48:56;12.83;;;11.63;;
18001;SDS011;9126;48.160;17.130;2022-10-23T00:51:24;11.27;;;10.17;;
18001;SDS011;9126;48.160;17.130;2022-10-23T00:53:56;11.40;;;10.27;;
18001;SDS011;9126;48.160;17.130;2022-10-23T00:56:25;12.70;;;11.40;;
18001;SDS011;9126;48.160;17.130;2022-10-23T00:58:53;13.23;;;11.97;;
18001;SDS011;9126;48.160;17.130;2022-10-23T01:01:21;11.87;;;10.77;;
18001;SDS011;9126;48.160;17.130;2022-10-23T01:03:50;12.63;;;11.53;;
18001;SDS011;9126;48.160;17.130;2022-10-23T01:06:20;13.77;;;12.37;;
18001;SDS011;9126;48.160;17.130;2022-10-23T01:08:58;13.80;;;11.37;;
18001;SDS011;9126;48.160;17.130;2022-10-23T01:11:38;15.17;;;13.57;;
18001;SDS011;9126;48.160;17.130;2022-10-23T01:14:11;15.33;;;13.73;;
18001;SDS011;9126;48.160;17.130;2022-10-23T01:16:50;15.33;;;14.03;;
18001;SDS011;9126;48.160;17.130;2022-10-23T01:19:29;14.63;;;13.43;;
18001;SDS011;9126;48.160;17.130;2022-10-23T01:22:11;15.80;;;14.20;;
18001;SDS011;9126;48.160;17.130;2022-10-23T01:24:50;17.00;;;15.43;;
18001;SDS011;9126;48.160;17.130;2022-10-23T01:27:26;16.03;;;14.60;;
18001;SDS011;9126;48.160;17.130;2022-10-23T01:30:09;16.67;;;15.27;;
18001;SDS011;9126;48.160;17.130;2022-10-23T01:32:42;15.63;;;14.33;;
18001;SDS011;9126;48.160;17.130;2022-10-23T01:35:13;16.97;;;15.37;;
18001;SDS011;9126;48.160;17.130;2022-10-23T01:37:52;17.23;;;15.53;;
18001;SDS011;9126;48.160;17.130;2022-10-23T01:40:25;17.53;;;15.83;;
18001;SDS011;9126;48.160;17.130;2022-10-23T01:43:00;18.00;;;16.37;;
18001;SDS011;9126;48.160;17.130;2022-10-23T01:45:34;17.60;;;16.10;;
18001;SDS011;9126;48.160;17.130;2022-10-23T01:48:05;17.70;;;16.10;;
18001;SDS011;9126;48.160;17.130;2022-10-23T01:50:37;18.63;;;16.93;;
18001;SDS011;9126;48.160;17.130;2022-10-23T01:53:07;18.87;;;17.23;;
18001;SDS011;9126;48.160;17.130;2022-10-23T01:55:34;18.63;;;16.83;;
18001;SDS011;9126;48.160;17.130;2022-10-23T01:58:04;19.03;;;17.23;;
18001;SDS011;9126;48.160;17.130;2022-10-23T02:00:32;19.37;;;17.30;;
18001;SDS011;9126;48.160;17.130;2022-10-23T02:03:01;17.77;;;16.27;;
18001;SDS011;9126;48.160;17.130;2022-10-23T02:05:29;20.00;;;18.03;;
18001;SDS011;9126;48.160;17.130;2022-10-23T02:07:57;19.47;;;17.63;;
18001;SDS011;9126;48.160;17.130;2022-10-23T02:10:27;19.60;;;17.87;;
18001;SDS011;9126;48.160;17.130;2022-10-23T02:13:01;21.70;;;19.73;;
18001;SDS011;9126;48.160;17.130;2022-10-23T02:15:32;21.07;;;18.97;;
18001;SDS011;9126;48.160;17.130;2022-10-23T02:18:04;21.93;;;19.93;;
18001;SDS011;9126;48.160;17.130;2022-10-23T02:20:35;23.20;;;19.93;;
18001;SDS011;9126;48.160;17.130;2022-10-23T02:23:14;20.67;;;18.77;;
18001;SDS011;9126;48.160;17.130;2022-10-23T02:25:47;20.17;;;18.37;;
18001;SDS011;9126;48.160;17.130;2022-10-23T02:28:21;20.00;;;18.10;;
18001;SDS011;9126;48.160;17.130;2022-10-23T02:30:52;20.87;;;18.80;;
18001;SDS011;9126;48.160;17.130;2022-10-23T02:33:22;20.23;;;18.20;;
18001;SDS011;9126;48.160;17.130;2022-10-23T02:35:51;20.27;;;18.47;;
18001;SDS011;9126;48.160;17.130;2022-10-23T02:38:25;20.67;;;18.67;;
18001;SDS011;9126;48.160;17.130;2022-10-23T02:40:56;20.33;;;18.53;;
18001;SDS011;9126;48.160;17.130;2022-10-23T02:43:29;20.03;;;18.23;;
18001;SDS011;9126;48.160;17.130;2022-10-23T02:46:03;21.23;;;19.30;;
18001;SDS011;9126;48.160;17.130;2022-10-23T02:48:39;24.00;;;21.77;;
18001;SDS011;9126;48.160;17.130;2022-10-23T02:51:10;30.33;;;27.23;;
18001;SDS011;9126;48.160;17.130;2022-10-23T02:53:44;29.00;;;26.07;;
18001;SDS011;9126;48.160;17.130;2022-10-23T02:56:20;28.97;;;26.27;;
18001;SDS011;9126;48.160;17.130;2022-10-23T02:58:56;28.33;;;25.63;;
18001;SDS011;9126;48.160;17.130;2022-10-23T03:01:32;28.20;;;25.50;;
18001;SDS011;9126;48.160;17.130;2022-10-23T03:04:06;28.47;;;25.67;;
18001;SDS011;9126;48.160;17.130;2022-10-23T03:06:34;29.70;;;27.00;;
18001;SDS011;9126;48.160;17.130;2022-10-23T03:09:03;40.83;;;36.73;;
18001;SDS011;9126;48.160;17.130;2022-10-23T03:11:31;39.73;;;35.73;;
18001;SDS011;9126;48.160;17.130;2022-10-23T03:13:59;40.57;;;36.57;;
18001;SDS011;9126;48.160;17.130;2022-10-23T03:16:26;48.07;;;43.20;;
18001;SDS011;9126;48.160;17.130;2022-10-23T03:18:54;57.80;;;51.97;;
18001;SDS011;9126;48.160;17.130;2022-10-23T03:21:21;57.60;;;51.60;;
18001;SDS011;9126;48.160;17.130;2022-10-23T03:23:48;54.20;;;48.77;;
18001;SDS011;9126;48.160;17.130;2022-10-23T03:26:15;53.63;;;48.00;;
18001;SDS011;9126;48.160;17.130;2022-10-23T03:28:42;53.80;;;48.20;;
18001;SDS011;9126;48.160;17.130;2022-10-23T03:31:10;51.40;;;46.20;;
18001;SDS011;9126;48.160;17.130;2022-10-23T03:33:37;48.80;;;43.93;;
18001;SDS011;9126;48.160;17.130;2022-10-23T03:36:04;47.60;;;43.03;;
18001;SDS011;9126;48.160;17.130;2022-10-23T03:38:32;48.50;;;43.77;;
18001;SDS011;9126;48.160;17.130;2022-10-23T03:40:58;51.10;;;46.10;;
18001;SDS011;9126;48.160;17.130;2022-10-23T03:43:25;54.00;;;48.47;;
18001;SDS011;9126;48.160;17.130;2022-10-23T03:45:54;52.53;;;47.10;;
18001;SDS011;9126;48.160;17.130;2022-10-23T03:48:23;49.23;;;44.43;;
18001;SDS011;9126;48.160;17.130;2022-10-23T03:50:50;50.27;;;45.07;;
18001;SDS011;9126;48.160;17.130;2022-10-23T03:53:17;64.20;;;52.77;;
18001;SDS011;9126;48.160;17.130;2022-10-23T03:55:44;85.50;;;67.57;;
18001;SDS011;9126;48.160;17.130;2022-10-23T03:58:11;74.63;;;60.57;;
18001;SDS011;9126;48.160;17.130;2022-10-23T04:00:38;69.93;;;51.37;;
18001;SDS011;9126;48.160;17.130;2022-10-23T04:03:06;73.63;;;42.97;;
18001;SDS011;9126;48.160;17.130;2022-10-23T04:05:37;86.30;;;42.63;;
18001;SDS011;9126;48.160;17.130;2022-10-23T04:08:05;110.07;;;42.80;;
18001;SDS011;9126;48.160;17.130;2022-10-23T04:10:32;65.30;;;41.63;;
18001;SDS011;9126;48.160;17.130;2022-10-23T04:12:59;83.23;;;41.33;;
18001;SDS011;9126;48.160;17.130;2022-10-23T04:15:26;66.93;;;42.30;;
18001;SDS011;9126;48.160;17.130;2022-10-23T04:17:53;191.63;;;52.50;;
18001;SDS011;9126;48.160;17.130;2022-10-23T04:20:20;105.03;;;47.30;;
18001;SDS011;9126;48.160;17.130;2022-10-23T04:22:48;85.93;;;49.13;;
18001;SDS011;9126;48.160;17.130;2022-10-23T04:25:16;95.63;;;49.43;;
18001;SDS011;9126;48.160;17.130;2022-10-23T04:27:43;123.27;;;56.37;;
18001;SDS011;9126;48.160;17.130;2022-10-23T04:30:10;254.10;;;63.70;;
18001;SDS011;9126;48.160;17.130;2022-10-23T04:32:37;144.70;;;56.43;;
18001;SDS011;9126;48.160;17.130;2022-10-23T04:35:05;155.20;;;51.43;;
18001;SDS011;9126;48.160;17.130;2022-10-23T04:37:33;90.67;;;48.13;;
18001;SDS011;9126;48.160;17.130;2022-10-23T04:40:21;81.03;;;46.77;;
18001;SDS011;9126;48.160;17.130;2022-10-23T04:42:48;103.63;;;45.87;;
18001;SDS011;9126;48.160;17.130;2022-10-23T04:45:15;82.43;;;44.10;;
18001;SDS011;9126;48.160;17.130;2022-10-23T04:47:42;82.83;;;45.23;;
18001;SDS011;9126;48.160;17.130;2022-10-23T04:50:09;106.17;;;44.73;;
18001;SDS011;9126;48.160;17.130;2022-10-23T04:52:36;118.30;;;47.90;;
18001;SDS011;9126;48.160;17.130;2022-10-23T04:55:05;74.73;;;44.60;;
18001;SDS011;9126;48.160;17.130;2022-10-23T04:57:34;87.83;;;43.03;;
18001;SDS011;9126;48.160;17.130;2022-10-23T05:00:02;86.10;;;42.30;;
18001;SDS011;9126;48.160;17.130;2022-10-23T05:02:30;141.77;;;51.43;;
18001;SDS011;9126;48.160;17.130;2022-10-23T05:04:59;85.63;;;46.13;;
18001;SDS011;9126;48.160;17.130;2022-10-23T05:07:26;80.17;;;44.07;;
18001;SDS011;9126;48.160;17.130;2022-10-23T05:09:53;78.03;;;46.10;;
18001;SDS011;9126;48.160;17.130;2022-10-23T05:12:20;78.73;;;46.13;;
18001;SDS011;9126;48.160;17.130;2022-10-23T05:14:52;69.83;;;46.77;;
18001;SDS011;9126;48.160;17.130;2022-10-23T05:17:20;71.57;;;45.60;;
18001;SDS011;9126;48.160;17.130;2022-10-23T05:19:52;63.50;;;45.63;;
18001;SDS011;9126;48.160;17.130;2022-10-23T05:22:20;71.50;;;49.27;;
18001;SDS011;9126;48.160;17.130;2022-10-23T05:24:50;73.57;;;48.83;;
18001;SDS011;9126;48.160;17.130;2022-10-23T05:27:17;97.73;;;56.23;;
18001;SDS011;9126;48.160;17.130;2022-10-23T05:29:44;64.13;;;48.73;;
18001;SDS011;9126;48.160;17.130;2022-10-23T05:32:13;77.00;;;49.40;;
18001;SDS011;9126;48.160;17.130;2022-10-23T05:34:42;62.13;;;48.70;;
18001;SDS011;9126;48.160;17.130;2022-10-23T05:37:09;69.77;;;49.17;;
18001;SDS011;9126;48.160;17.130;2022-10-23T05:39:39;84.70;;;51.93;;
18001;SDS011;9126;48.160;17.130;2022-10-23T05:42:06;88.80;;;53.60;;
18001;SDS011;9126;48.160;17.130;2022-10-23T05:44:33;77.93;;;51.03;;
18001;SDS011;9126;48.160;17.130;2022-10-23T05:47:00;80.43;;;51.13;;
18001;SDS011;9126;48.160;17.130;2022-10-23T05:49:29;64.80;;;46.83;;
18001;SDS011;9126;48.160;17.130;2022-10-23T05:51:56;103.40;;;56.20;;
18001;SDS011;9126;48.160;17.130;2022-10-23T05:54:23;77.03;;;48.80;;
18001;SDS011;9126;48.160;17.130;2022-10-23T05:56:50;85.27;;;52.27;;
18001;SDS011;9126;48.160;17.130;2022-10-23T05:59:17;85.80;;;52.10;;
18001;SDS011;9126;48.160;17.130;2022-10-23T06:01:44;71.23;;;48.73;;
18001;SDS011;9126;48.160;17.130;2022-10-23T06:04:11;62.50;;;47.90;;
18001;SDS011;9126;48.160;17.130;2022-10-23T06:06:39;81.67;;;51.17;;
18001;SDS011;9126;48.160;17.130;2022-10-23T06:09:06;78.20;;;51.07;;
18001;SDS011;9126;48.160;17.130;2022-10-23T06:11:34;97.23;;;57.27;;
18001;SDS011;9126;48.160;17.130;2022-10-23T06:14:01;135.30;;;64.40;;
18001;SDS011;9126;48.160;17.130;2022-10-23T06:16:28;128.40;;;64.00;;
18001;SDS011;9126;48.160;17.130;2022-10-23T06:18:55;117.17;;;61.53;;
18001;SDS011;9126;48.160;17.130;2022-10-23T06:21:23;99.90;;;54.93;;
18001;SDS011;9126;48.160;17.130;2022-10-23T06:23:51;112.87;;;60.30;;
18001;SDS011;9126;48.160;17.130;2022-10-23T06:26:20;106.27;;;57.27;;
18001;SDS011;9126;48.160;17.130;2022-10-23T06:28:47;99.10;;;56.17;;
18001;SDS011;9126;48.160;17.130;2022-10-23T06:31:14;127.20;;;57.43;;
18001;SDS011;9126;48.160;17.130;2022-10-23T06:33:43;115.23;;;58.13;;
18001;SDS011;9126;48.160;17.130;2022-10-23T06:36:11;97.43;;;55.53;;
18001;SDS011;9126;48.160;17.130;2022-10-23T06:38:38;82.50;;;50.87;;
18001;SDS011;9126;48.160;17.130;2022-10-23T06:41:09;88.97;;;51.03;;
18001;SDS011;9126;48.160;17.130;2022-10-23T06:43:38;72.20;;;45.87;;
18001;SDS011;9126;48.160;17.130;2022-10-23T06:46:05;76.43;;;44.27;;
18001;SDS011;9126;48.160;17.130;2022-10-23T06:48:32;73.10;;;44.13;;
18001;SDS011;9126;48.160;17.130;2022-10-23T06:51:03;60.80;;;41.23;;
18001;SDS011;9126;48.160;17.130;2022-10-23T06:53:31;52.27;;;38.80;;
18001;SDS011;9126;48.160;17.130;2022-10-23T06:56:00;58.87;;;40.63;;
18001;SDS011;9126;48.160;17.130;2022-10-23T06:58:28;58.63;;;38.80;;
18001;SDS011;9126;48.160;17.130;2022-10-23T07:00:58;50.50;;;36.93;;
18001;SDS011;9126;48.160;17.130;2022-10-23T07:03:25;49.60;;;36.17;;
18001;SDS011;9126;48.160;17.130;2022-10-23T07:05:52;43.93;;;35.07;;
18001;SDS011;9126;48.160;17.130;2022-10-23T07:08:19;44.93;;;31.77;;
18001;SDS011;9126;48.160;17.130;2022-10-23T07:10:48;49.87;;;32.87;;
18001;SDS011;9126;48.160;17.130;2022-10-23T07:13:15;56.33;;;33.40;;
18001;SDS011;9126;48.160;17.130;2022-10-23T07:15:43;42.33;;;31.57;;
18001;SDS011;9126;48.160;17.130;2022-10-23T07:18:10;40.83;;;31.73;;
18001;SDS011;9126;48.160;17.130;2022-10-23T07:20:39;51.07;;;30.30;;
18001;SDS011;9126;48.160;17.130;2022-10-23T07:23:06;40.30;;;30.00;;
18001;SDS011;9126;48.160;17.130;2022-10-23T07:25:34;62.20;;;33.80;;
18001;SDS011;9126;48.160;17.130;2022-10-23T07:28:02;46.30;;;31.00;;
18001;SDS011;9126;48.160;17.130;2022-10-23T07:30:29;41.27;;;30.37;;
18001;SDS011;9126;48.160;17.130;2022-10-23T07:33:00;57.23;;;34.13;;
18001;SDS011;9126;48.160;17.130;2022-10-23T07:35:27;41.70;;;28.57;;
18001;SDS011;9126;48.160;17.130;2022-10-23T07:37:58;48.90;;;31.80;;
18001;SDS011;9126;48.160;17.130;2022-10-23T07:40:25;47.00;;;31.07;;
18001;SDS011;9126;48.160;17.130;2022-10-23T07:42:52;50.80;;;27.00;;
18001;SDS011;9126;48.160;17.130;2022-10-23T07:45:19;40.70;;;26.60;;
18001;SDS011;9126;48.160;17.130;2022-10-23T07:47:49;33.83;;;22.23;;
18001;SDS011;9126;48.160;17.130;2022-10-23T07:50:18;32.20;;;24.40;;
18001;SDS011;9126;48.160;17.130;2022-10-23T07:52:45;36.13;;;24.30;;
18001;SDS011;9126;48.160;17.130;2022-10-23T07:55:12;38.50;;;23.30;;
18001;SDS011;9126;48.160;17.130;2022-10-23T07:57:39;30.37;;;24.27;;
18001;SDS011;9126;48.160;17.130;2022-10-23T08:00:07;43.27;;;26.27;;
18001;SDS011;9126;48.160;17.130;2022-10-23T08:02:35;50.97;;;27.87;;
18001;SDS011;9126;48.160;17.130;2022-10-23T08:05:05;97.70;;;46.07;;
18001;SDS011;9126;48.160;17.130;2022-10-23T08:07:34;106.37;;;42.33;;
18001;SDS011;9126;48.160;17.130;2022-10-23T08:10:01;100.20;;;40.87;;
18001;SDS011;9126;48.160;17.130;2022-10-23T08:12:28;86.37;;;39.83;;
18001;SDS011;9126;48.160;17.130;2022-10-23T08:14:57;87.73;;;42.03;;
18001;SDS011;9126;48.160;17.130;2022-10-23T08:17:24;65.43;;;32.93;;
18001;SDS011;9126;48.160;17.130;2022-10-23T08:19:51;65.40;;;32.80;;
18001;SDS011;9126;48.160;17.130;2022-10-23T08:22:18;49.87;;;30.93;;
18001;SDS011;9126;48.160;17.130;2022-10-23T08:24:47;39.17;;;24.70;;
18001;SDS011;9126;48.160;17.130;2022-10-23T08:27:14;38.03;;;23.07;;
18001;SDS011;9126;48.160;17.130;2022-10-23T08:29:41;34.97;;;21.30;;
18001;SDS011;9126;48.160;17.130;2022-10-23T08:32:08;31.67;;;21.23;;
18001;SDS011;9126;48.160;17.130;2022-10-23T08:34:35;28.73;;;20.00;;
18001;SDS011;9126;48.160;17.130;2022-10-23T08:37:02;30.63;;;20.67;;
18001;SDS011;9126;48.160;17.130;2022-10-23T08:39:29;29.47;;;21.20;;
18001;SDS011;9126;48.160;17.130;2022-10-23T08:41:58;32.47;;;20.90;;
18001;SDS011;9126;48.160;17.130;2022-10-23T08:44:25;28.37;;;20.30;;
18001;SDS011;9126;48.160;17.130;2022-10-23T08:46:59;28.30;;;19.77;;
18001;SDS011;9126;48.160;17.130;2022-10-23T08:52:19;31.10;;;20.73;;
18001;SDS011;9126;48.160;17.130;2022-10-23T08:54:55;25.27;;;18.83;;
18001;SDS011;9126;48.160;17.130;2022-10-23T08:57:29;26.97;;;19.90;;
18001;SDS011;9126;48.160;17.130;2022-10-23T09:00:03;26.17;;;19.87;;
18001;SDS011;9126;48.160;17.130;2022-10-23T09:02:32;27.03;;;19.60;;
18001;SDS011;9126;48.160;17.130;2022-10-23T09:05:05;21.80;;;17.03;;
18001;SDS011;9126;48.160;17.130;2022-10-23T09:07:41;24.37;;;19.23;;
18001;SDS011;9126;48.160;17.130;2022-10-23T09:10:28;25.83;;;18.90;;
18001;SDS011;9126;48.160;17.130;2022-10-23T09:13:10;25.13;;;19.87;;
18001;SDS011;9126;48.160;17.130;2022-10-23T09:15:48;24.10;;;20.20;;
18001;SDS011;9126;48.160;17.130;2022-10-23T09:18:24;32.60;;;20.50;;
18001;SDS011;9126;48.160;17.130;2022-10-23T09:20:51;23.93;;;19.10;;
18001;SDS011;9126;48.160;17.130;2022-10-23T09:23:20;23.43;;;18.83;;
18001;SDS011;9126;48.160;17.130;2022-10-23T09:25:49;23.90;;;20.13;;
18001;SDS011;9126;48.160;17.130;2022-10-23T09:28:23;24.40;;;18.77;;
18001;SDS011;9126;48.160;17.130;2022-10-23T09:30:52;23.80;;;17.93;;
18001;SDS011;9126;48.160;17.130;2022-10-23T09:33:31;20.63;;;17.27;;
18001;SDS011;9126;48.160;17.130;2022-10-23T09:36:02;20.83;;;17.20;;
18001;SDS011;9126;48.160;17.130;2022-10-23T09:38:31;20.33;;;17.53;;
18001;SDS011;9126;48.160;17.130;2022-10-23T09:41:01;22.40;;;17.60;;
18001;SDS011;9126;48.160;17.130;2022-10-23T09:43:33;22.07;;;18.87;;
18001;SDS011;9126;48.160;17.130;2022-10-23T09:46:01;20.13;;;18.03;;
18001;SDS011;9126;48.160;17.130;2022-10-23T09:48:30;22.20;;;17.03;;
18001;SDS011;9126;48.160;17.130;2022-10-23T09:50:58;21.83;;;17.47;;
18001;SDS011;9126;48.160;17.130;2022-10-23T09:53:31;20.67;;;17.80;;
18001;SDS011;9126;48.160;17.130;2022-10-23T09:56:00;21.93;;;19.73;;
18001;SDS011;9126;48.160;17.130;2022-10-23T09:58:31;21.07;;;18.00;;
18001;SDS011;9126;48.160;17.130;2022-10-23T10:01:01;21.13;;;18.43;;
18001;SDS011;9126;48.160;17.130;2022-10-23T10:03:29;21.63;;;17.23;;
18001;SDS011;9126;48.160;17.130;2022-10-23T10:05:57;23.60;;;17.10;;
18001;SDS011;9126;48.160;17.130;2022-10-23T10:08:31;18.80;;;16.80;;
18001;SDS011;9126;48.160;17.130;2022-10-23T10:11:08;21.10;;;18.47;;
18001;SDS011;9126;48.160;17.130;2022-10-23T10:13:48;23.73;;;17.40;;
18001;SDS011;9126;48.160;17.130;2022-10-23T10:16:26;19.07;;;16.53;;
18001;SDS011;9126;48.160;17.130;2022-10-23T10:19:05;20.43;;;17.10;;
18001;SDS011;9126;48.160;17.130;2022-10-23T10:21:44;18.97;;;16.40;;
18001;SDS011;9126;48.160;17.130;2022-10-23T10:24:16;19.23;;;16.63;;
18001;SDS011;9126;48.160;17.130;2022-10-23T10:26:47;17.83;;;15.93;;
18001;SDS011;9126;48.160;17.130;2022-10-23T10:29:24;18.27;;;15.77;;
18001;SDS011;9126;48.160;17.130;2022-10-23T10:32:05;19.57;;;17.37;;
18001;SDS011;9126;48.160;17.130;2022-10-23T10:34:42;19.47;;;16.73;;
18001;SDS011;9126;48.160;17.130;2022-10-23T10:37:18;20.40;;;18.17;;
18001;SDS011;9126;48.160;17.130;2022-10-23T10:39:54;20.43;;;18.33;;
18001;SDS011;9126;48.160;17.130;2022-10-23T10:42:37;20.27;;;17.33;;
18001;SDS011;9126;48.160;17.130;2022-10-23T10:45:18;21.20;;;18.50;;
18001;SDS011;9126;48.160;17.130;2022-10-23T10:47:56;20.53;;;18.00;;
18001;SDS011;9126;48.160;17.130;2022-10-23T10:50:49;17.60;;;15.80;;
18001;SDS011;9126;48.160;17.130;2022-10-23T10:53:22;16.77;;;14.97;;
18001;SDS011;9126;48.160;17.130;2022-10-23T10:55:54;17.83;;;14.90;;
18001;SDS011;9126;48.160;17.130;2022-10-23T10:58:35;17.60;;;15.37;;
18001;SDS011;9126;48.160;17.130;2022-10-23T11:01:21;15.93;;;14.23;;
18001;SDS011;9126;48.160;17.130;2022-10-23T11:03:53;19.07;;;15.13;;
18001;SDS011;9126;48.160;17.130;2022-10-23T11:06:26;17.27;;;15.47;;
18001;SDS011;9126;48.160;17.130;2022-10-23T11:08:58;17.13;;;15.23;;
18001;SDS011;9126;48.160;17.130;2022-10-23T11:11:31;17.37;;;15.57;;
18001;SDS011;9126;48.160;17.130;2022-10-23T11:14:01;18.23;;;15.73;;
18001;SDS011;9126;48.160;17.130;2022-10-23T11:16:31;17.10;;;15.20;;
18001;SDS011;9126;48.160;17.130;2022-10-23T11:19:03;16.80;;;15.00;;
18001;SDS011;9126;48.160;17.130;2022-10-23T11:21:41;15.53;;;13.93;;
18001;SDS011;9126;48.160;17.130;2022-10-23T11:24:30;29.37;;;26.20;;
18001;SDS011;9126;48.160;17.130;2022-10-23T11:27:27;14.77;;;13.27;;
18001;SDS011;9126;48.160;17.130;2022-10-23T11:30:06;15.53;;;12.77;;
18001;SDS011;9126;48.160;17.130;2022-10-23T11:35:49;15.53;;;13.20;;
18001;SDS011;9126;48.160;17.130;2022-10-23T11:38:23;15.23;;;13.30;;
18001;SDS011;9126;48.160;17.130;2022-10-23T11:40:56;15.17;;;13.57;;
18001;SDS011;9126;48.160;17.130;2022-10-23T11:43:26;15.53;;;13.93;;
18001;SDS011;9126;48.160;17.130;2022-10-23T11:45:55;14.50;;;13.10;;
18001;SDS011;9126;48.160;17.130;2022-10-23T11:48:33;15.30;;;13.70;;
18001;SDS011;9126;48.160;17.130;2022-10-23T11:51:03;16.13;;;14.50;;
18001;SDS011;9126;48.160;17.130;2022-10-23T11:53:37;17.30;;;14.73;;
18001;SDS011;9126;48.160;17.130;2022-10-23T11:56:24;18.43;;;14.53;;
18001;SDS011;9126;48.160;17.130;2022-10-23T11:58:55;14.17;;;12.70;;
18001;SDS011;9126;48.160;17.130;2022-10-23T12:01:25;14.73;;;13.23;;
18001;SDS011;9126;48.160;17.130;2022-10-23T12:03:57;18.87;;;14.23;;
18001;SDS011;9126;48.160;17.130;2022-10-23T12:06:28;19.00;;;13.33;;
18001;SDS011;9126;48.160;17.130;2022-10-23T12:08:59;15.30;;;13.70;;
18001;SDS011;9126;48.160;17.130;2022-10-23T12:11:42;20.00;;;14.80;;
18001;SDS011;9126;48.160;17.130;2022-10-23T12:16:55;15.93;;;14.30;;
18001;SDS011;9126;48.160;17.130;2022-10-23T12:19:24;16.20;;;14.43;;
18001;SDS011;9126;48.160;17.130;2022-10-23T12:21:55;16.87;;;14.37;;
18001;SDS011;9126;48.160;17.130;2022-10-23T12:24:42;16.17;;;14.50;;
18001;SDS011;9126;48.160;17.130;2022-10-23T12:27:22;17.53;;;15.73;;
18001;SDS011;9126;48.160;17.130;2022-10-23T12:29:59;17.03;;;15.23;;
18001;SDS011;9126;48.160;17.130;2022-10-23T12:32:46;17.93;;;16.03;;
18001;SDS011;9126;48.160;17.130;2022-10-23T12:35:27;18.10;;;16.03;;
18001;SDS011;9126;48.160;17.130;2022-10-23T12:38:17;17.87;;;16.07;;
18001;SDS011;9126;48.160;17.130;2022-10-23T12:40:50;16.57;;;14.77;;
18001;SDS011;9126;48.160;17.130;2022-10-23T12:43:22;16.67;;;14.97;;
18001;SDS011;9126;48.160;17.130;2022-10-23T12:45:51;19.07;;;16.57;;
18001;SDS011;9126;48.160;17.130;2022-10-23T12:48:21;16.53;;;14.83;;
18001;SDS011;9126;48.160;17.130;2022-10-23T12:50:50;17.00;;;15.20;;
18001;SDS011;9126;48.160;17.130;2022-10-23T12:53:21;16.53;;;14.93;;
18001;SDS011;9126;48.160;17.130;2022-10-23T12:55:50;17.13;;;14.47;;
18001;SDS011;9126;48.160;17.130;2022-10-23T12:58:22;16.60;;;14.90;;
18001;SDS011;9126;48.160;17.130;2022-10-23T13:00:53;16.47;;;14.83;;
18001;SDS011;9126;48.160;17.130;2022-10-23T13:03:23;17.43;;;15.63;;
18001;SDS011;9126;48.160;17.130;2022-10-23T13:05:53;16.80;;;15.20;;
18001;SDS011;9126;48.160;17.130;2022-10-23T13:08:26;16.47;;;14.77;;
18001;SDS011;9126;48.160;17.130;2022-10-23T13:10:58;15.33;;;13.80;;
18001;SDS011;9126;48.160;17.130;2022-10-23T13:13:27;15.80;;;14.20;;
18001;SDS011;9126;48.160;17.130;2022-10-23T13:15:54;16.33;;;14.63;;
18001;SDS011;9126;48.160;17.130;2022-10-23T13:18:22;16.47;;;14.93;;
18001;SDS011;9126;48.160;17.130;2022-10-23T13:20:56;16.13;;;14.50;;
18001;SDS011;9126;48.160;17.130;2022-10-23T13:23:30;17.43;;;15.73;;
18001;SDS011;9126;48.160;17.130;2022-10-23T13:25:59;16.33;;;14.83;;
18001;SDS011;9126;48.160;17.130;2022-10-23T13:28:27;15.73;;;14.03;;
18001;SDS011;9126;48.160;17.130;2022-10-23T13:34:15;17.43;;;15.63;;
18001;SDS011;9126;48.160;17.130;2022-10-23T13:36:54;17.43;;;15.60;;
18001;SDS011;9126;48.160;17.130;2022-10-23T13:39:31;17.60;;;15.80;;
18001;SDS011;9126;48.160;17.130;2022-10-23T13:42:00;18.43;;;16.53;;
18001;SDS011;9126;48.160;17.130;2022-10-23T13:44:36;18.80;;;16.23;;
18001;SDS011;9126;48.160;17.130;2022-10-23T13:47:03;18.17;;;16.27;;
18001;SDS011;9126;48.160;17.130;2022-10-23T13:49:30;17.03;;;15.23;;
18001;SDS011;9126;48.160;17.130;2022-10-23T13:51:57;17.33;;;15.53;;
18001;SDS011;9126;48.160;17.130;2022-10-23T13:54:25;18.53;;;16.57;;
18001;SDS011;9126;48.160;17.130;2022-10-23T13:56:54;19.50;;;17.50;;
18001;SDS011;9126;48.160;17.130;2022-10-23T13:59:22;20.43;;;18.13;;
18001;SDS011;9126;48.160;17.130;2022-10-23T14:01:49;18.87;;;16.87;;
18001;SDS011;9126;48.160;17.130;2022-10-23T14:04:17;19.73;;;17.57;;
18001;SDS011;9126;48.160;17.130;2022-10-23T14:06:44;18.67;;;16.77;;
18001;SDS011;9126;48.160;17.130;2022-10-23T14:09:12;19.33;;;17.30;;
18001;SDS011;9126;48.160;17.130;2022-10-23T14:11:41;19.57;;;17.13;;
18001;SDS011;9126;48.160;17.130;2022-10-23T14:14:09;19.10;;;17.03;;
18001;SDS011;9126;48.160;17.130;2022-10-23T14:16:36;19.77;;;17.67;;
18001;SDS011;9126;48.160;17.130;2022-10-23T14:19:03;19.63;;;17.57;;
18001;SDS011;9126;48.160;17.130;2022-10-23T14:21:32;22.90;;;17.83;;
18001;SDS011;9126;48.160;17.130;2022-10-23T14:23:59;20.07;;;17.30;;
18001;SDS011;9126;48.160;17.130;2022-10-23T14:26:26;20.33;;;18.33;;
18001;SDS011;9126;48.160;17.130;2022-10-23T14:28:54;27.67;;;21.50;;
18001;SDS011;9126;48.160;17.130;2022-10-23T14:31:24;26.73;;;21.80;;
18001;SDS011;9126;48.160;17.130;2022-10-23T14:33:51;28.37;;;23.50;;
18001;SDS011;9126;48.160;17.130;2022-10-23T14:36:20;30.30;;;24.47;;
18001;SDS011;9126;48.160;17.130;2022-10-23T14:38:47;30.00;;;25.30;;
18001;SDS011;9126;48.160;17.130;2022-10-23T14:41:19;30.13;;;24.50;;
18001;SDS011;9126;48.160;17.130;2022-10-23T14:43:46;28.07;;;24.93;;
18001;SDS011;9126;48.160;17.130;2022-10-23T14:46:14;30.57;;;25.10;;
18001;SDS011;9126;48.160;17.130;2022-10-23T14:48:43;30.37;;;25.23;;
18001;SDS011;9126;48.160;17.130;2022-10-23T14:51:17;34.80;;;26.23;;
18001;SDS011;9126;48.160;17.130;2022-10-23T14:53:46;28.57;;;24.73;;